sensor_id;sensor_type;location;lat;lon;timestamp;pressure;altitude;pressure_sealevel;temperature;humidity
57644;BME280;43474;46.510;6.686;2022-09-09T00:04:26;96310.69;;;17.74;100.00
57644;BME280;43474;46.510;6.686;2022-09-09T00:09:45;96319.28;;;17.71;100.00
57644;BME280;43474;46.510;6.686;2022-09-09T00:12:15;96321.94;;;17.76;100.00
57644;BME280;43474;46.510;6.686;2022-09-09T00:14:59;96319.53;;;17.69;100.00
57644;BME280;43474;46.510;6.686;2022-09-09T00:17:43;96317.75;;;17.60;100.00
57644;BME280;43474;46.510;6.686;2022-09-09T00:20:14;96354.66;;;17.73;100.00
57644;BME280;43474;46.510;6.686;2022-09-09T00:22:48;96351.97;;;17.73;100.00
57644;BME280;43474;46.510;6.686;2022-09-09T00:25:39;96350.66;;;17.70;100.00
57644;BME280;43474;46.510;6.686;2022-09-09T00:28:18;96341.56;;;17.66;100.00
57644;BME280;43474;46.510;6.686;2022-09-09T00:30:44;96338.19;;;17.55;100.00
57644;BME280;43474;46.510;6.686;2022-09-09T00:33:15;96338.66;;;17.63;100.00
57644;BME280;43474;46.510;6.686;2022-09-09T00:35:47;96330.94;;;17.56;100.00
57644;BME280;43474;46.510;6.686;2022-09-09T00:38:24;96332.63;;;17.47;100.00
57644;BME280;43474;46.510;6.686;2022-09-09T00:40:55;96342.31;;;17.43;100.00
57644;BME280;43474;46.510;6.686;2022-09-09T00:43:32;96352.31;;;17.32;100.00
57644;BME280;43474;46.510;6.686;2022-09-09T00:51:22;96368.13;;;16.94;100.00
57644;BME280;43474;46.510;6.686;2022-09-09T00:54:05;96371.41;;;16.86;100.00
57644;BME280;43474;46.510;6.686;2022-09-09T00:56:49;96370.66;;;16.70;100.00
57644;BME280;43474;46.510;6.686;2022-09-09T00:59:30;96377.09;;;16.69;100.00
57644;BME280;43474;46.510;6.686;2022-09-09T01:02:07;96365.09;;;16.62;100.00
57644;BME280;43474;46.510;6.686;2022-09-09T01:04:38;96393.16;;;16.64;100.00
57644;BME280;43474;46.510;6.686;2022-09-09T01:07:17;96386.00;;;16.49;100.00
57644;BME280;43474;46.510;6.686;2022-09-09T01:09:54;96378.88;;;16.29;100.00
57644;BME280;43474;46.510;6.686;2022-09-09T01:12:41;96377.66;;;15.96;100.00
57644;BME280;43474;46.510;6.686;2022-09-09T01:15:19;96402.28;;;15.78;100.00
57644;BME280;43474;46.510;6.686;2022-09-09T01:18:08;96403.09;;;15.63;100.00
57644;BME280;43474;46.510;6.686;2022-09-09T01:21:01;96428.22;;;15.67;100.00
57644;BME280;43474;46.510;6.686;2022-09-09T01:23:47;96400.41;;;15.53;100.00
57644;BME280;43474;46.510;6.686;2022-09-09T01:28:48;96416.16;;;15.60;100.00
57644;BME280;43474;46.510;6.686;2022-09-09T01:31:19;96401.50;;;15.37;100.00
57644;BME280;43474;46.510;6.686;2022-09-09T01:33:45;96419.91;;;15.48;100.00
57644;BME280;43474;46.510;6.686;2022-09-09T01:37:19;96406.56;;;15.38;100.00
57644;BME280;43474;46.510;6.686;2022-09-09T01:39:20;96443.94;;;15.48;100.00
57644;BME280;43474;46.510;6.686;2022-09-09T01:41:46;96416.72;;;15.46;100.00
57644;BME280;43474;46.510;6.686;2022-09-09T01:44:11;96417.50;;;15.42;100.00
57644;BME280;43474;46.510;6.686;2022-09-09T01:46:37;96407.88;;;15.46;100.00
57644;BME280;43474;46.510;6.686;2022-09-09T01:49:05;96417.22;;;15.54;100.00
57644;BME280;43474;46.510;6.686;2022-09-09T01:51:32;96423.09;;;15.56;100.00
57644;BME280;43474;46.510;6.686;2022-09-09T01:53:59;96416.44;;;15.43;100.00
57644;BME280;43474;46.510;6.686;2022-09-09T01:56:54;96404.97;;;15.42;100.00
57644;BME280;43474;46.510;6.686;2022-09-09T01:59:50;96422.06;;;15.46;100.00
57644;BME280;43474;46.510;6.686;2022-09-09T02:02:25;96402.53;;;15.41;100.00
57644;BME280;43474;46.510;6.686;2022-09-09T02:04:57;96403.34;;;15.41;100.00
57644;BME280;43474;46.510;6.686;2022-09-09T02:07:47;96412.16;;;15.57;100.00
57644;BME280;43474;46.510;6.686;2022-09-09T02:10:30;96418.06;;;15.64;100.00
57644;BME280;43474;46.510;6.686;2022-09-09T02:13:12;96404.94;;;15.58;100.00
57644;BME280;43474;46.510;6.686;2022-09-09T02:18:39;96388.13;;;15.52;100.00
57644;BME280;43474;46.510;6.686;2022-09-09T02:21:07;96398.00;;;15.36;100.00
57644;BME280;43474;46.510;6.686;2022-09-09T02:23:34;96387.31;;;15.31;100.00
57644;BME280;43474;46.510;6.686;2022-09-09T02:26:01;96400.13;;;15.39;100.00
57644;BME280;43474;46.510;6.686;2022-09-09T02:28:29;96397.47;;;15.34;100.00
57644;BME280;43474;46.510;6.686;2022-09-09T02:30:57;96388.94;;;15.27;100.00
57644;BME280;43474;46.510;6.686;2022-09-09T02:33:27;96382.53;;;15.28;100.00
57644;BME280;43474;46.510;6.686;2022-09-09T02:35:55;96384.13;;;15.29;100.00
57644;BME280;43474;46.510;6.686;2022-09-09T02:38:28;96381.16;;;15.25;100.00
57644;BME280;43474;46.510;6.686;2022-09-09T02:40:55;96396.66;;;15.39;100.00
57644;BME280;43474;46.510;6.686;2022-09-09T02:43:20;96391.84;;;15.41;100.00
57644;BME280;43474;46.510;6.686;2022-09-09T02:48:39;96372.38;;;15.30;100.00
57644;BME280;43474;46.510;6.686;2022-09-09T02:51:24;96383.59;;;15.47;100.00
57644;BME280;43474;46.510;6.686;2022-09-09T02:54:15;96381.16;;;15.51;100.00
57644;BME280;43474;46.510;6.686;2022-09-09T02:56:47;96370.22;;;15.47;100.00
57644;BME280;43474;46.510;6.686;2022-09-09T02:59:15;96376.91;;;15.50;100.00
57644;BME280;43474;46.510;6.686;2022-09-09T03:01:41;96379.31;;;15.51;100.00
57644;BME280;43474;46.510;6.686;2022-09-09T03:04:07;96370.47;;;15.46;100.00
57644;BME280;43474;46.510;6.686;2022-09-09T03:06:33;96363.81;;;15.38;100.00
57644;BME280;43474;46.510;6.686;2022-09-09T03:08:58;96363.03;;;15.43;100.00
57644;BME280;43474;46.510;6.686;2022-09-09T03:11:26;96378.47;;;15.56;100.00
57644;BME280;43474;46.510;6.686;2022-09-09T03:13:53;96357.13;;;15.46;100.00
57644;BME280;43474;46.510;6.686;2022-09-09T03:16:22;96363.81;;;15.54;100.00
57644;BME280;43474;46.510;6.686;2022-09-09T03:18:47;96359.53;;;15.52;100.00
57644;BME280;43474;46.510;6.686;2022-09-09T03:21:13;96371.56;;;15.55;100.00
57644;BME280;43474;46.510;6.686;2022-09-09T03:23:38;96368.09;;;15.44;100.00
57644;BME280;43474;46.510;6.686;2022-09-09T03:26:04;96365.16;;;15.46;100.00
57644;BME280;43474;46.510;6.686;2022-09-09T03:28:30;96379.31;;;15.51;100.00
57644;BME280;43474;46.510;6.686;2022-09-09T03:31:03;96373.97;;;15.57;100.00
57644;BME280;43474;46.510;6.686;2022-09-09T03:33:29;96380.13;;;15.57;100.00
57644;BME280;43474;46.510;6.686;2022-09-09T03:35:56;96383.81;;;15.56;100.00
57644;BME280;43474;46.510;6.686;2022-09-09T03:38:25;96378.25;;;15.58;100.00
57644;BME280;43474;46.510;6.686;2022-09-09T03:40:52;96381.72;;;15.58;100.00
57644;BME280;43474;46.510;6.686;2022-09-09T03:43:25;96383.31;;;15.59;100.00
57644;BME280;43474;46.510;6.686;2022-09-09T03:45:51;96376.09;;;15.60;100.00
57644;BME280;43474;46.510;6.686;2022-09-09T03:48:18;96381.72;;;15.63;100.00
57644;BME280;43474;46.510;6.686;2022-09-09T03:50:49;96371.28;;;15.62;100.00
57644;BME280;43474;46.510;6.686;2022-09-09T03:53:16;96370.75;;;15.55;100.00
57644;BME280;43474;46.510;6.686;2022-09-09T03:55:46;96371.84;;;15.48;100.00
57644;BME280;43474;46.510;6.686;2022-09-09T03:58:14;96362.75;;;15.39;100.00
57644;BME280;43474;46.510;6.686;2022-09-09T04:00:39;96373.16;;;15.41;100.00
57644;BME280;43474;46.510;6.686;2022-09-09T04:03:09;96363.28;;;15.36;100.00
57644;BME280;43474;46.510;6.686;2022-09-09T04:05:35;96360.59;;;15.41;100.00
57644;BME280;43474;46.510;6.686;2022-09-09T04:08:06;96353.66;;;15.40;100.00
57644;BME280;43474;46.510;6.686;2022-09-09T04:10:32;96364.34;;;15.40;100.00
57644;BME280;43474;46.510;6.686;2022-09-09T04:12:57;96365.13;;;15.51;100.00
57644;BME280;43474;46.510;6.686;2022-09-09T04:15:23;96361.16;;;15.48;100.00
57644;BME280;43474;46.510;6.686;2022-09-09T04:17:48;96351.25;;;15.49;100.00
57644;BME280;43474;46.510;6.686;2022-09-09T04:20:15;96355.81;;;15.54;100.00
57644;BME280;43474;46.510;6.686;2022-09-09T04:22:40;96348.84;;;15.58;100.00
57644;BME280;43474;46.510;6.686;2022-09-09T04:25:06;96357.94;;;15.62;100.00
57644;BME280;43474;46.510;6.686;2022-09-09T04:27:32;96353.63;;;15.61;100.00
57644;BME280;43474;46.510;6.686;2022-09-09T04:29:57;96349.13;;;15.71;100.00
57644;BME280;43474;46.510;6.686;2022-09-09T04:32:24;96339.22;;;15.77;100.00
57644;BME280;43474;46.510;6.686;2022-09-09T04:34:52;96335.50;;;15.68;100.00
57644;BME280;43474;46.510;6.686;2022-09-09T04:37:17;96323.44;;;15.75;100.00
57644;BME280;43474;46.510;6.686;2022-09-09T04:39:43;96356.31;;;15.76;100.00
57644;BME280;43474;46.510;6.686;2022-09-09T04:42:08;96352.84;;;15.75;100.00
57644;BME280;43474;46.510;6.686;2022-09-09T04:44:34;96350.97;;;15.76;100.00
57644;BME280;43474;46.510;6.686;2022-09-09T04:46:59;96354.72;;;15.80;100.00
57644;BME280;43474;46.510;6.686;2022-09-09T04:49:25;96322.69;;;15.65;100.00
57644;BME280;43474;46.510;6.686;2022-09-09T04:51:51;96332.53;;;15.80;100.00
57644;BME280;43474;46.510;6.686;2022-09-09T04:54:17;96335.19;;;15.80;100.00
57644;BME280;43474;46.510;6.686;2022-09-09T04:56:42;96339.47;;;15.81;100.00
57644;BME280;43474;46.510;6.686;2022-09-09T04:59:08;96357.94;;;15.72;100.00
57644;BME280;43474;46.510;6.686;2022-09-09T05:01:35;96348.84;;;15.78;100.00
57644;BME280;43474;46.510;6.686;2022-09-09T05:04:02;96349.38;;;15.75;100.00
57644;BME280;43474;46.510;6.686;2022-09-09T05:06:28;96363.53;;;15.75;100.00
57644;BME280;43474;46.510;6.686;2022-09-09T05:08:56;96374.75;;;15.77;100.00
57644;BME280;43474;46.510;6.686;2022-09-09T05:11:25;96369.16;;;15.79;100.00
57644;BME280;43474;46.510;6.686;2022-09-09T05:13:52;96348.84;;;15.73;100.00
57644;BME280;43474;46.510;6.686;2022-09-09T05:16:19;96377.16;;;15.79;100.00
57644;BME280;43474;46.510;6.686;2022-09-09T05:18:46;96363.00;;;15.73;100.00
57644;BME280;43474;46.510;6.686;2022-09-09T05:21:13;96369.13;;;15.84;100.00
57644;BME280;43474;46.510;6.686;2022-09-09T05:23:39;96371.53;;;15.86;100.00
57644;BME280;43474;46.510;6.686;2022-09-09T05:26:06;96361.13;;;15.79;100.00
57644;BME280;43474;46.510;6.686;2022-09-09T05:28:34;96365.94;;;15.82;100.00
57644;BME280;43474;46.510;6.686;2022-09-09T05:31:03;96375.00;;;15.91;100.00
57644;BME280;43474;46.510;6.686;2022-09-09T05:33:31;96383.53;;;15.93;100.00
57644;BME280;43474;46.510;6.686;2022-09-09T05:36:04;96350.13;;;15.86;100.00
57644;BME280;43474;46.510;6.686;2022-09-09T05:38:31;96361.63;;;15.96;100.00
57644;BME280;43474;46.510;6.686;2022-09-09T05:40:58;96361.09;;;15.94;100.00
57644;BME280;43474;46.510;6.686;2022-09-09T05:43:25;96368.00;;;16.00;100.00
57644;BME280;43474;46.510;6.686;2022-09-09T05:48:28;96363.28;;;15.82;100.00
57644;BME280;43474;46.510;6.686;2022-09-09T05:50:54;96375.56;;;15.78;100.00
57644;BME280;43474;46.510;6.686;2022-09-09T05:53:20;96357.94;;;15.77;100.00
57644;BME280;43474;46.510;6.686;2022-09-09T05:55:45;96375.56;;;15.73;100.00
57644;BME280;43474;46.510;6.686;2022-09-09T05:58:11;96361.69;;;15.66;100.00
57644;BME280;43474;46.510;6.686;2022-09-09T06:00:37;96374.75;;;15.77;100.00
57644;BME280;43474;46.510;6.686;2022-09-09T06:03:03;96371.78;;;15.89;100.00
57644;BME280;43474;46.510;6.686;2022-09-09T06:05:29;96379.50;;;15.96;100.00
57644;BME280;43474;46.510;6.686;2022-09-09T06:07:55;96373.38;;;15.95;100.00
57644;BME280;43474;46.510;6.686;2022-09-09T06:10:21;96376.03;;;15.95;100.00
57644;BME280;43474;46.510;6.686;2022-09-09T06:12:47;96379.22;;;16.13;100.00
57644;BME280;43474;46.510;6.686;2022-09-09T06:15:13;96371.47;;;16.11;100.00
57644;BME280;43474;46.510;6.686;2022-09-09T06:17:38;96370.13;;;16.14;100.00
57644;BME280;43474;46.510;6.686;2022-09-09T06:20:05;96375.97;;;16.16;100.00
57644;BME280;43474;46.510;6.686;2022-09-09T06:22:30;96379.47;;;16.21;100.00
57644;BME280;43474;46.510;6.686;2022-09-09T06:24:56;96384.25;;;16.19;100.00
57644;BME280;43474;46.510;6.686;2022-09-09T06:27:22;96385.88;;;16.15;100.00
57644;BME280;43474;46.510;6.686;2022-09-09T06:29:47;96372.25;;;16.17;100.00
57644;BME280;43474;46.510;6.686;2022-09-09T06:32:13;96386.91;;;16.29;100.00
57644;BME280;43474;46.510;6.686;2022-09-09T06:34:39;96383.72;;;16.27;100.00
57644;BME280;43474;46.510;6.686;2022-09-09T06:37:05;96396.31;;;16.22;100.00
57644;BME280;43474;46.510;6.686;2022-09-09T06:39:31;96390.16;;;16.16;100.00
57644;BME280;43474;46.510;6.686;2022-09-09T06:41:57;96382.41;;;16.10;100.00
57644;BME280;43474;46.510;6.686;2022-09-09T06:44:24;96398.47;;;16.10;100.00
57644;BME280;43474;46.510;6.686;2022-09-09T06:46:52;96402.72;;;16.11;100.00
57644;BME280;43474;46.510;6.686;2022-09-09T06:49:17;96400.31;;;16.19;100.00
57644;BME280;43474;46.510;6.686;2022-09-09T06:51:43;96398.97;;;16.27;100.00
57644;BME280;43474;46.510;6.686;2022-09-09T06:54:10;96399.94;;;16.51;100.00
57644;BME280;43474;46.510;6.686;2022-09-09T06:56:38;96388.72;;;16.44;100.00
57644;BME280;43474;46.510;6.686;2022-09-09T06:59:07;96391.94;;;16.41;100.00
57644;BME280;43474;46.510;6.686;2022-09-09T07:01:39;96395.31;;;16.62;100.00
57644;BME280;43474;46.510;6.686;2022-09-09T07:04:09;96387.00;;;16.74;100.00
57644;BME280;43474;46.510;6.686;2022-09-09T07:06:38;96401.91;;;16.85;100.00
57644;BME280;43474;46.510;6.686;2022-09-09T07:09:06;96401.91;;;16.85;100.00
57644;BME280;43474;46.510;6.686;2022-09-09T07:11:55;96393.69;;;16.76;100.00
57644;BME280;43474;46.510;6.686;2022-09-09T07:14:19;96390.44;;;16.79;100.00
57644;BME280;43474;46.510;6.686;2022-09-09T07:16:45;96391.97;;;16.96;100.00
57644;BME280;43474;46.510;6.686;2022-09-09T07:19:12;96399.69;;;17.02;100.00
57644;BME280;43474;46.510;6.686;2022-09-09T07:21:38;96403.41;;;17.07;100.00
57644;BME280;43474;46.510;6.686;2022-09-09T07:24:06;96395.22;;;17.27;100.00
57644;BME280;43474;46.510;6.686;2022-09-09T07:26:35;96383.97;;;17.25;100.00
57644;BME280;43474;46.510;6.686;2022-09-09T07:29:02;96389.69;;;17.13;100.00
57644;BME280;43474;46.510;6.686;2022-09-09T07:31:30;96379.63;;;17.34;100.00
57644;BME280;43474;46.510;6.686;2022-09-09T07:33:57;96399.25;;;17.58;100.00
57644;BME280;43474;46.510;6.686;2022-09-09T07:36:25;96380.25;;;18.13;100.00
57644;BME280;43474;46.510;6.686;2022-09-09T07:38:53;96375.16;;;18.36;100.00
57644;BME280;43474;46.510;6.686;2022-09-09T07:41:22;96383.66;;;18.19;100.00
57644;BME280;43474;46.510;6.686;2022-09-09T07:43:49;96397.81;;;18.00;100.00
57644;BME280;43474;46.510;6.686;2022-09-09T07:46:17;96388.22;;;17.94;100.00
57644;BME280;43474;46.510;6.686;2022-09-09T07:48:51;96402.75;;;17.88;100.00
57644;BME280;43474;46.510;6.686;2022-09-09T07:51:26;96384.41;;;17.71;100.00
57644;BME280;43474;46.510;6.686;2022-09-09T07:53:55;96384.50;;;17.61;100.00
57644;BME280;43474;46.510;6.686;2022-09-09T07:56:21;96383.50;;;17.52;100.00
57644;BME280;43474;46.510;6.686;2022-09-09T07:58:49;96396.56;;;17.58;100.00
57644;BME280;43474;46.510;6.686;2022-09-09T08:01:18;96407.63;;;17.86;100.00
57644;BME280;43474;46.510;6.686;2022-09-09T08:03:53;96403.16;;;17.76;100.00
57644;BME280;43474;46.510;6.686;2022-09-09T08:06:19;96409.59;;;17.75;100.00
57644;BME280;43474;46.510;6.686;2022-09-09T08:08:49;96413.69;;;17.63;100.00
57644;BME280;43474;46.510;6.686;2022-09-09T08:11:15;96404.84;;;17.62;100.00
57644;BME280;43474;46.510;6.686;2022-09-09T08:13:42;96414.47;;;17.63;100.00
57644;BME280;43474;46.510;6.686;2022-09-09T08:16:17;96428.72;;;17.93;100.00
57644;BME280;43474;46.510;6.686;2022-09-09T08:18:43;96422.06;;;17.90;100.00
57644;BME280;43474;46.510;6.686;2022-09-09T08:21:11;96433.81;;;18.18;100.00
57644;BME280;43474;46.510;6.686;2022-09-09T08:23:38;96431.78;;;18.10;100.00
57644;BME280;43474;46.510;6.686;2022-09-09T08:26:14;96418.03;;;17.88;100.00
57644;BME280;43474;46.510;6.686;2022-09-09T08:28:41;96424.59;;;18.05;100.00
57644;BME280;43474;46.510;6.686;2022-09-09T08:31:09;96423.94;;;18.14;100.00
57644;BME280;43474;46.510;6.686;2022-09-09T08:33:35;96425.69;;;17.99;100.00
57644;BME280;43474;46.510;6.686;2022-09-09T08:36:04;96415.44;;;18.06;100.00
57644;BME280;43474;46.510;6.686;2022-09-09T08:38:30;96428.06;;;18.54;100.00
57644;BME280;43474;46.510;6.686;2022-09-09T08:41:07;96422.69;;;18.54;100.00
57644;BME280;43474;46.510;6.686;2022-09-09T08:43:36;96434.41;;;18.39;100.00
57644;BME280;43474;46.510;6.686;2022-09-09T08:46:26;96430.25;;;20.44;100.00
57644;BME280;43474;46.510;6.686;2022-09-09T08:49:14;96434.00;;;20.98;96.75
57644;BME280;43474;46.510;6.686;2022-09-09T08:51:43;96432.34;;;20.88;97.89
57644;BME280;43474;46.510;6.686;2022-09-09T08:54:09;96433.47;;;20.74;97.17
57644;BME280;43474;46.510;6.686;2022-09-09T08:56:35;96429.38;;;22.64;91.20
57644;BME280;43474;46.510;6.686;2022-09-09T08:59:02;96436.00;;;22.89;93.05
57644;BME280;43474;46.510;6.686;2022-09-09T09:11:24;96454.72;;;21.84;86.72
57644;BME280;43474;46.510;6.686;2022-09-09T09:13:57;96443.81;;;23.00;81.64
57644;BME280;43474;46.510;6.686;2022-09-09T09:16:34;96446.53;;;23.34;79.15
57644;BME280;43474;46.510;6.686;2022-09-09T09:19:04;96428.34;;;23.95;80.54
57644;BME280;43474;46.510;6.686;2022-09-09T09:21:37;96439.44;;;24.20;78.06
57644;BME280;43474;46.510;6.686;2022-09-09T09:24:10;96432.09;;;24.29;75.22
57644;BME280;43474;46.510;6.686;2022-09-09T09:26:42;96436.84;;;25.00;67.89
57644;BME280;43474;46.510;6.686;2022-09-09T09:29:14;96432.22;;;24.71;70.53
57644;BME280;43474;46.510;6.686;2022-09-09T09:31:51;96428.59;;;24.96;71.70
57644;BME280;43474;46.510;6.686;2022-09-09T09:34:17;96432.47;;;25.58;67.58
57644;BME280;43474;46.510;6.686;2022-09-09T09:36:56;96422.84;;;24.68;67.36
57644;BME280;43474;46.510;6.686;2022-09-09T09:39:28;96433.38;;;25.20;64.07
57644;BME280;43474;46.510;6.686;2022-09-09T09:41:54;96431.13;;;24.25;70.55
57644;BME280;43474;46.510;6.686;2022-09-09T09:44:25;96444.41;;;24.18;75.14
57644;BME280;43474;46.510;6.686;2022-09-09T09:46:51;96432.41;;;23.72;74.10
57644;BME280;43474;46.510;6.686;2022-09-09T09:49:17;96443.31;;;23.06;72.30
57644;BME280;43474;46.510;6.686;2022-09-09T09:51:43;96433.03;;;21.98;79.40
57644;BME280;43474;46.510;6.686;2022-09-09T09:54:17;96440.97;;;22.65;77.33
57644;BME280;43474;46.510;6.686;2022-09-09T09:56:44;96431.56;;;23.71;75.95
57644;BME280;43474;46.510;6.686;2022-09-09T09:59:32;96443.97;;;24.84;68.64
57644;BME280;43474;46.510;6.686;2022-09-09T10:02:15;96439.72;;;25.04;66.51
57644;BME280;43474;46.510;6.686;2022-09-09T10:04:41;96425.13;;;25.38;64.65
57644;BME280;43474;46.510;6.686;2022-09-09T10:07:11;96425.22;;;24.99;64.87
57644;BME280;43474;46.510;6.686;2022-09-09T10:09:37;96439.72;;;25.04;65.03
57644;BME280;43474;46.510;6.686;2022-09-09T10:20:17;96442.13;;;25.26;62.26
57644;BME280;43474;46.510;6.686;2022-09-09T10:22:51;96442.28;;;25.00;62.20
57644;BME280;43474;46.510;6.686;2022-09-09T10:25:25;96426.56;;;25.35;63.58
57644;BME280;43474;46.510;6.686;2022-09-09T10:28:21;96420.97;;;25.19;60.75
57644;BME280;43474;46.510;6.686;2022-09-09T10:31:13;96424.00;;;25.39;59.76
57644;BME280;43474;46.510;6.686;2022-09-09T10:33:51;96424.22;;;25.34;54.42
57644;BME280;43474;46.510;6.686;2022-09-09T10:36:23;96415.81;;;25.47;57.99
57644;BME280;43474;46.510;6.686;2022-09-09T10:47:21;96421.94;;;25.15;62.96
57644;BME280;43474;46.510;6.686;2022-09-09T10:50:11;96404.00;;;25.43;55.16
57644;BME280;43474;46.510;6.686;2022-09-09T10:52:59;96405.88;;;24.80;57.21
57644;BME280;43474;46.510;6.686;2022-09-09T10:55:38;96424.47;;;24.90;56.90
57644;BME280;43474;46.510;6.686;2022-09-09T10:58:05;96405.63;;;24.73;59.06
57644;BME280;43474;46.510;6.686;2022-09-09T11:00:38;96415.13;;;25.30;61.00
57644;BME280;43474;46.510;6.686;2022-09-09T11:03:05;96409.09;;;25.45;55.36
57644;BME280;43474;46.510;6.686;2022-09-09T11:05:45;96424.72;;;25.48;54.70
57644;BME280;43474;46.510;6.686;2022-09-09T11:08:21;96414.75;;;25.19;58.09
57644;BME280;43474;46.510;6.686;2022-09-09T11:10:53;96419.13;;;25.11;58.41
57644;BME280;43474;46.510;6.686;2022-09-09T11:19:24;96416.59;;;25.27;56.75
57644;BME280;43474;46.510;6.686;2022-09-09T11:21:52;96421.25;;;25.26;54.49
57644;BME280;43474;46.510;6.686;2022-09-09T11:26:58;96406.88;;;25.47;57.24
57644;BME280;43474;46.510;6.686;2022-09-09T11:35:32;96405.31;;;25.58;52.66
57644;BME280;43474;46.510;6.686;2022-09-09T11:40:40;96412.03;;;25.19;52.07
57644;BME280;43474;46.510;6.686;2022-09-09T11:43:12;96406.75;;;25.22;55.74
57644;BME280;43474;46.510;6.686;2022-09-09T11:45:41;96419.78;;;24.99;53.96
57644;BME280;43474;46.510;6.686;2022-09-09T11:48:25;96412.97;;;24.93;53.71
57644;BME280;43474;46.510;6.686;2022-09-09T11:51:05;96416.88;;;25.13;54.62
57644;BME280;43474;46.510;6.686;2022-09-09T11:53:34;96406.34;;;25.12;55.03
57644;BME280;43474;46.510;6.686;2022-09-09T11:56:09;96410.41;;;24.97;51.37
57644;BME280;43474;46.510;6.686;2022-09-09T11:58:38;96412.75;;;24.78;53.42
57644;BME280;43474;46.510;6.686;2022-09-09T12:01:39;96421.75;;;24.90;54.59
57644;BME280;43474;46.510;6.686;2022-09-09T12:06:41;96413.78;;;24.94;52.02
57644;BME280;43474;46.510;6.686;2022-09-09T12:09:16;96426.78;;;24.80;54.10
57644;BME280;43474;46.510;6.686;2022-09-09T12:11:43;96419.66;;;24.66;54.61
57644;BME280;43474;46.510;6.686;2022-09-09T12:14:19;96431.03;;;25.19;54.36
57644;BME280;43474;46.510;6.686;2022-09-09T12:16:46;96419.63;;;25.25;52.74
57644;BME280;43474;46.510;6.686;2022-09-09T12:19:14;96426.00;;;25.30;53.28
57644;BME280;43474;46.510;6.686;2022-09-09T12:24:29;96430.50;;;24.96;51.05
57644;BME280;43474;46.510;6.686;2022-09-09T12:27:02;96428.06;;;25.03;51.76
57644;BME280;43474;46.510;6.686;2022-09-09T12:32:23;96428.66;;;25.17;46.72
57644;BME280;43474;46.510;6.686;2022-09-09T12:35:20;96426.31;;;25.28;49.13
57644;BME280;43474;46.510;6.686;2022-09-09T12:40:20;96420.72;;;25.04;46.60
57644;BME280;43474;46.510;6.686;2022-09-09T12:42:46;96416.91;;;25.25;49.73
57644;BME280;43474;46.510;6.686;2022-09-09T12:45:19;96423.78;;;25.02;46.82
57644;BME280;43474;46.510;6.686;2022-09-09T12:48:14;96417.31;;;25.15;48.83
57644;BME280;43474;46.510;6.686;2022-09-09T12:50:50;96410.66;;;25.13;45.48
57644;BME280;43474;46.510;6.686;2022-09-09T12:53:33;96408.16;;;24.99;49.33
57644;BME280;43474;46.510;6.686;2022-09-09T12:56:03;96408.66;;;24.71;47.36
57644;BME280;43474;46.510;6.686;2022-09-09T12:58:30;96396.41;;;24.65;50.55
57644;BME280;43474;46.510;6.686;2022-09-09T13:01:01;96403.03;;;24.00;48.24
57644;BME280;43474;46.510;6.686;2022-09-09T13:03:30;96402.19;;;24.17;50.43
57644;BME280;43474;46.510;6.686;2022-09-09T13:05:58;96393.06;;;23.31;53.47
57644;BME280;43474;46.510;6.686;2022-09-09T13:08:27;96406.41;;;23.02;55.88
57644;BME280;43474;46.510;6.686;2022-09-09T13:10:59;96391.16;;;23.66;54.85
57644;BME280;43474;46.510;6.686;2022-09-09T13:13:36;96380.41;;;23.96;51.81
57644;BME280;43474;46.510;6.686;2022-09-09T13:16:04;96404.66;;;24.31;50.40
57644;BME280;43474;46.510;6.686;2022-09-09T13:18:35;96385.56;;;24.65;50.16
57644;BME280;43474;46.510;6.686;2022-09-09T13:21:02;96395.00;;;24.59;50.49
57644;BME280;43474;46.510;6.686;2022-09-09T13:23:37;96390.78;;;24.41;47.28
57644;BME280;43474;46.510;6.686;2022-09-09T13:26:18;96392.59;;;24.28;46.36
57644;BME280;43474;46.510;6.686;2022-09-09T13:28:47;96396.09;;;24.20;50.46
57644;BME280;43474;46.510;6.686;2022-09-09T13:31:30;96395.28;;;23.81;49.50
57644;BME280;43474;46.510;6.686;2022-09-09T13:33:56;96374.78;;;23.54;49.06
57644;BME280;43474;46.510;6.686;2022-09-09T13:36:30;96384.41;;;23.98;51.72
57644;BME280;43474;46.510;6.686;2022-09-09T13:38:58;96387.03;;;24.16;50.03
57644;BME280;43474;46.510;6.686;2022-09-09T13:41:44;96366.69;;;24.10;50.48
57644;BME280;43474;46.510;6.686;2022-09-09T13:44:35;96364.56;;;24.24;51.67
57644;BME280;43474;46.510;6.686;2022-09-09T13:47:17;96365.47;;;23.98;46.23
57644;BME280;43474;46.510;6.686;2022-09-09T13:49:44;96320.63;;;23.71;47.94
57644;BME280;43474;46.510;6.686;2022-09-09T13:52:20;96332.38;;;23.84;49.86
57644;BME280;43474;46.510;6.686;2022-09-09T13:54:50;96372.81;;;23.81;51.55
57644;BME280;43474;46.510;6.686;2022-09-09T13:57:19;96354.56;;;23.69;52.22
57644;BME280;43474;46.510;6.686;2022-09-09T13:59:46;96369.16;;;23.85;54.16
57644;BME280;43474;46.510;6.686;2022-09-09T14:02:12;96353.75;;;23.77;55.85
57644;BME280;43474;46.510;6.686;2022-09-09T14:04:37;96359.16;;;23.51;54.49
57644;BME280;43474;46.510;6.686;2022-09-09T14:07:03;96359.81;;;23.65;54.78
57644;BME280;43474;46.510;6.686;2022-09-09T14:09:29;96353.00;;;23.25;53.32
57644;BME280;43474;46.510;6.686;2022-09-09T14:11:54;96359.53;;;22.98;56.55
57644;BME280;43474;46.510;6.686;2022-09-09T14:14:22;96354.06;;;22.71;56.23
57644;BME280;43474;46.510;6.686;2022-09-09T14:16:48;96355.09;;;23.19;57.14
57644;BME280;43474;46.510;6.686;2022-09-09T14:19:14;96364.91;;;23.50;55.90
57644;BME280;43474;46.510;6.686;2022-09-09T14:21:39;96359.03;;;23.65;56.75
57644;BME280;43474;46.510;6.686;2022-09-09T14:24:05;96365.22;;;23.65;54.96
57644;BME280;43474;46.510;6.686;2022-09-09T14:26:31;96365.09;;;22.92;58.70
57644;BME280;43474;46.510;6.686;2022-09-09T14:28:57;96357.78;;;23.10;57.49